ZW-0034 weather

Sengwa Research Area Airstrip
Matabeleland North Province, Zimbabwe

Public forecast

Using degrees Celsius for public forecast. Weather courtesy of forecast.io.

Closest aviation weather report (METAR) to Sengwa Research Area Airstrip

Report is more than 6 hours old.

Closest report is Hwange National Park Airport, 73.6 nm (136.2 km) WSW. Retrieved 2020/08/05 09:00 UTC (2 days ago):

FVWN 050900Z 00000KT CAVOK 20/05 Q1024

Closest aviation forecast (TAF) to Sengwa Research Area Airstrip

Forecast is more than 12 hours old.

Closest forecast is Hwange National Park Airport, 73.6 nm (136.2 km) WSW. Retrieved 2014/01/24 05:00 UTC (7 years ago):

TAF FVWN 240400Z 2405/2418 VRB03KT CAVOK BECMG 2408/2410 9999 SCT030TCU FEW025CB PROB30 TEMPO 2410/2414 -TSRA